Flight Track Log - Related Links

Times and Time Zones

All times are in EDT time to prevent confusion due to time zone crossing. See the SKW5564 flight status page for this flight to view local times or setup timezone preferences in your user account.

Time Position Orientation Groundspeed Altitude Reporting Facility
EDT Latitude Longitude Course Direction KTS MPH feet Rate Location/Type
Tue 02:23:15 PM 41.9667 -87.8667 90° East 176 203 1,800  Level Chicago TRACON
Tue 02:24:15 PM 41.9667 -87.7833 90° East 223 257 3,900 2,141 Climbing Chicago TRACON
Tue 02:26:20 PM 41.9503 -87.5928 97° East 285 328 8,400 2,310 Climbing Chicago Center
Tue 02:27:22 PM 41.9906 -87.4711 66° East 298 343 11,100 2,419 Climbing Chicago Center
Tue 02:28:24 PM 42.0250 -87.3569 68° East 326 375 13,400 2,177 Climbing Chicago Center
Tue 02:29:26 PM 42.0603 -87.2408 68° East 337 388 15,600 2,081 Climbing Chicago Center
Tue 02:30:28 PM 42.0956 -87.1192 69° East 347 399 17,700 1,839 Climbing Chicago Center
Tue 02:31:30 PM 42.1147 -86.9858 79° East 368 423 19,400 1,645 Climbing Chicago Center
Tue 02:32:32 PM 42.1194 -86.8428 87° East 382 440 21,100 1,839 Climbing Chicago Center
Tue 02:33:34 PM 42.1256 -86.6736 87° East 391 450 23,200 1,645 Climbing Chicago Center
Tue 02:34:36 PM 42.1300 -86.5211 88° East 402 463 24,500 871 Climbing Chicago Center
Tue 02:35:38 PM 42.1358 -86.3614 87° East 424 488 25,000 242 Climbing Chicago Center
Tue 02:36:40 PM 42.1414 -86.1944 87° East 442 509 25,000  Level Chicago Center
Tue 02:37:43 PM 42.1414 -86.0242 90° East 454 522 25,000  Level Chicago Center
Tue 02:38:45 PM 42.1356 -85.8292 92° East 464 534 25,000  Level Chicago Center
Tue 02:39:47 PM 42.1303 -85.6564 92° East 466 536 25,000  Level Chicago Center
Tue 02:40:49 PM 42.1256 -85.4844 92° East 464 534 25,000  Level Chicago Center
Tue 02:41:51 PM 42.1200 -85.2786 92° East 460 529 25,000  Level Chicago Center
Tue 02:42:53 PM 42.1153 -85.1058 92° East 465 535 25,000  Level Chicago Center
Tue 02:43:56 PM 42.1092 -84.9369 93° East 457 526 25,000  Level Chicago Center
Tue 02:44:57 PM 42.1033 -84.7681 93° East 454 522 25,000  Level Chicago Center
Tue 02:45:59 PM 42.0969 -84.5978 93° East 457 526 25,000  Level Chicago Center
Tue 02:47:01 PM 42.0892 -84.3956 93° East 455 524 25,000  Level Chicago Center
Tue 02:48:03 PM 42.0825 -84.2283 93° East 451 519 25,000 -48 Level Chicago Center
Tue 02:49:05 PM 42.0756 -84.0611 93° East 451 519 24,900 -200 Descending Chicago Center
Tue 02:50:03 PM 42.0661 -83.9089 95° East 449 517 24,600 -407 Descending Cleveland Center
Tue 02:51:03 PM 42.0567 -83.7183 94° East 444 511 24,100 -300 Descending Cleveland Center
Tue 02:52:03 PM 42.0508 -83.5503 93° East 449 517 24,000 -50 Descending Cleveland Center
Tue 02:53:03 PM 42.0403 -83.3847 95° East 449 517 24,000 -500 Level Cleveland Center
Tue 02:54:03 PM 42.0233 -83.2219 98° East 442 509 23,000 -1,550 Descending Cleveland Center
Tue 02:55:03 PM 42.0061 -83.0564 98° East 442 509 20,900 -2,100 Descending Cleveland Center
Tue 02:56:03 PM 41.9928 -82.9075 97° East 423 487 18,800 -2,050 Descending Cleveland Center
Tue 02:57:03 PM 41.9789 -82.7647 97° East 402 463 16,800 -2,124 Descending Cleveland Center
Tue 02:57:56 PM 41.9664 -82.6414 98° East 378 435 14,800 -2,056 Descending Cleveland Center
Tue 02:58:51 PM 41.9456 -82.5206 103° East 365 420 13,100 -1,670 Descending Cleveland Center
Tue 02:59:51 PM 41.9081 -82.3994 113° Southeast 355 409 11,600 -1,488 Descending Cleveland Center
Tue 03:00:52 PM 41.8703 -82.2758 112° Southeast 353 406 10,100 -750 Descending Cleveland Center
Tue 03:01:59 PM 41.8242 -82.1492 116° Southeast 349 402 10,000 -49 Descending Cleveland Center
Tue 03:02:54 PM 41.7564 -82.0722 140° Southeast 357 411 10,000 -261 Level Cleveland Center
Tue 03:03:54 PM 41.6781 -82.0094 149° Southeast 321 369 9,500 -744 Descending Cleveland Center
Tue 03:05:03 PM 41.6019 -81.9244 140° Southeast 314 361 8,400 -1,031 Descending Cleveland Center
Tue 03:06:02 PM 41.5800 -81.8267 107° East 271 312 7,300 -800 Descending Cleveland Center
Tue 03:07:03 PM 41.5894 -81.7381 82° East 204 235 6,800 -1,078 Descending Cleveland Center
Tue 03:08:10 PM 41.5922 -81.6658 87° East 206 237 5,000 -1,323 Descending Cleveland Center
Tue 03:09:10 PM 41.5339 -81.6622 177° South 195 224 4,000 -730 Descending Cleveland Center
Tue 03:10:05 PM 41.5064 -81.7061 230° Southwest 185 213 3,600 -724 Descending Cleveland Center
Tue 03:11:06 PM 41.4725 -81.7553 227° Southwest 169 194 2,600 -836 Descending Cleveland Center
Tue 03:12:07 PM 41.4450 -81.7992 230° Southwest 145 167 1,900 -783 Descending Cleveland Center
Tue 03:13:01 PM 41.4214 -81.8375 231° Southwest 140 161 1,100 -889 Descending Cleveland Center

Login

Don't have an account? Register now (free) for customized features, flight alerts, and more!